sensor_id;sensor_type;location;lat;lon;timestamp;pressure;altitude;pressure_sealevel;temperature;humidity
55066;BME280;40964;42.114;24.220;2022-09-09T00:04:21;98066.78;;;17.59;75.15
55066;BME280;40964;42.114;24.220;2022-09-09T00:06:30;98054.28;;;17.60;75.60
55066;BME280;40964;42.114;24.220;2022-09-09T00:11:36;98062.97;;;17.45;76.39
55066;BME280;40964;42.114;24.220;2022-09-09T00:17:01;98070.69;;;17.47;76.68
55066;BME280;40964;42.114;24.220;2022-09-09T00:22:19;98069.53;;;17.38;77.59
55066;BME280;40964;42.114;24.220;2022-09-09T00:24:51;98076.19;;;17.35;76.81
55066;BME280;40964;42.114;24.220;2022-09-09T00:27:46;98080.44;;;17.36;76.98
55066;BME280;40964;42.114;24.220;2022-09-09T00:32:41;98069.81;;;17.36;77.23
55066;BME280;40964;42.114;24.220;2022-09-09T00:37:35;98070.28;;;17.33;77.25
55066;BME280;40964;42.114;24.220;2022-09-09T00:40:08;98066.56;;;17.34;77.44
55066;BME280;40964;42.114;24.220;2022-09-09T00:42:42;98073.53;;;17.35;77.37
55066;BME280;40964;42.114;24.220;2022-09-09T00:47:46;98075.06;;;17.31;76.94
55066;BME280;40964;42.114;24.220;2022-09-09T00:58:27;98066.91;;;17.11;77.74
55066;BME280;40964;42.114;24.220;2022-09-09T01:01:12;98066.91;;;17.11;77.77
55066;BME280;40964;42.114;24.220;2022-09-09T01:03:44;98074.56;;;17.07;77.48
55066;BME280;40964;42.114;24.220;2022-09-09T01:09:04;98072.41;;;17.04;77.64
55066;BME280;40964;42.114;24.220;2022-09-09T01:17:21;98067.31;;;16.97;77.87
55066;BME280;40964;42.114;24.220;2022-09-09T01:22:44;98068.59;;;16.90;78.23
55066;BME280;40964;42.114;24.220;2022-09-09T01:25:22;98071.63;;;16.77;79.25
55066;BME280;40964;42.114;24.220;2022-09-09T01:27:55;98073.16;;;16.72;79.25
55066;BME280;40964;42.114;24.220;2022-09-09T01:30:23;98068.00;;;16.66;79.48
55066;BME280;40964;42.114;24.220;2022-09-09T01:32:52;98067.88;;;16.72;79.68
55066;BME280;40964;42.114;24.220;2022-09-09T01:38:04;98059.09;;;16.72;79.44
55066;BME280;40964;42.114;24.220;2022-09-09T01:40:30;98063.50;;;16.66;80.07
55066;BME280;40964;42.114;24.220;2022-09-09T01:42:56;98059.97;;;16.61;80.10
55066;BME280;40964;42.114;24.220;2022-09-09T01:45:22;98059.50;;;16.64;80.26
55066;BME280;40964;42.114;24.220;2022-09-09T01:47:48;98056.13;;;16.68;79.59
55066;BME280;40964;42.114;24.220;2022-09-09T01:50:15;98062.56;;;16.72;79.81
55066;BME280;40964;42.114;24.220;2022-09-09T01:52:43;98061.75;;;16.72;79.44
55066;BME280;40964;42.114;24.220;2022-09-09T01:55:11;98060.19;;;16.76;78.87
55066;BME280;40964;42.114;24.220;2022-09-09T01:57:51;98050.09;;;16.78;79.02
55066;BME280;40964;42.114;24.220;2022-09-09T02:00:21;98045.00;;;16.71;79.08
55066;BME280;40964;42.114;24.220;2022-09-09T02:05:41;98050.03;;;16.51;81.13
55066;BME280;40964;42.114;24.220;2022-09-09T02:08:23;98052.59;;;16.41;81.63
55066;BME280;40964;42.114;24.220;2022-09-09T02:11:14;98058.88;;;16.35;81.76
55066;BME280;40964;42.114;24.220;2022-09-09T02:13:41;98062.31;;;16.35;82.21
55066;BME280;40964;42.114;24.220;2022-09-09T02:18:47;98059.50;;;16.42;82.08
55066;BME280;40964;42.114;24.220;2022-09-09T02:21:14;98062.41;;;16.40;81.68
55066;BME280;40964;42.114;24.220;2022-09-09T02:23:42;98069.31;;;16.41;81.70
55066;BME280;40964;42.114;24.220;2022-09-09T02:26:10;98071.97;;;16.41;81.61
55066;BME280;40964;42.114;24.220;2022-09-09T02:28:39;98063.47;;;16.39;81.61
55066;BME280;40964;42.114;24.220;2022-09-09T02:31:06;98058.66;;;16.36;81.70
55066;BME280;40964;42.114;24.220;2022-09-09T02:33:38;98062.91;;;16.37;81.73
55066;BME280;40964;42.114;24.220;2022-09-09T02:36:07;98059.50;;;16.42;81.45
55066;BME280;40964;42.114;24.220;2022-09-09T02:38:37;98054.00;;;16.49;81.07
55066;BME280;40964;42.114;24.220;2022-09-09T02:41:05;98055.19;;;16.58;80.56
55066;BME280;40964;42.114;24.220;2022-09-09T02:43:34;98053.06;;;16.60;80.38
55066;BME280;40964;42.114;24.220;2022-09-09T02:48:52;98064.63;;;16.49;80.80
55066;BME280;40964;42.114;24.220;2022-09-09T02:54:31;98071.00;;;16.48;81.17
55066;BME280;40964;42.114;24.220;2022-09-09T02:57:06;98065.94;;;16.46;82.16
55066;BME280;40964;42.114;24.220;2022-09-09T02:59:35;98072.47;;;16.38;81.79
55066;BME280;40964;42.114;24.220;2022-09-09T03:02:01;98085.03;;;16.26;82.58
55066;BME280;40964;42.114;24.220;2022-09-09T03:04:26;98085.78;;;16.22;83.04
55066;BME280;40964;42.114;24.220;2022-09-09T03:06:52;98084.97;;;16.21;83.76
55066;BME280;40964;42.114;24.220;2022-09-09T03:09:18;98089.16;;;16.17;84.04
55066;BME280;40964;42.114;24.220;2022-09-09T03:11:43;98080.66;;;16.15;84.56
55066;BME280;40964;42.114;24.220;2022-09-09T03:14:09;98079.59;;;16.16;84.24
55066;BME280;40964;42.114;24.220;2022-09-09T03:16:36;98078.88;;;16.21;83.97
55066;BME280;40964;42.114;24.220;2022-09-09T03:19:02;98081.59;;;16.26;83.62
55066;BME280;40964;42.114;24.220;2022-09-09T03:21:28;98078.72;;;16.27;83.72
55066;BME280;40964;42.114;24.220;2022-09-09T03:23:53;98083.50;;;16.30;83.24
55066;BME280;40964;42.114;24.220;2022-09-09T03:26:19;98080.84;;;16.30;83.95
55066;BME280;40964;42.114;24.220;2022-09-09T03:28:45;98086.16;;;16.30;84.14
55066;BME280;40964;42.114;24.220;2022-09-09T03:31:11;98086.16;;;16.30;84.33
55066;BME280;40964;42.114;24.220;2022-09-09T03:33:37;98080.84;;;16.30;83.97
55066;BME280;40964;42.114;24.220;2022-09-09T03:36:04;98086.66;;;16.27;83.48
55066;BME280;40964;42.114;24.220;2022-09-09T03:38:30;98089.53;;;16.26;83.45
55066;BME280;40964;42.114;24.220;2022-09-09T03:40:56;98079.59;;;16.16;83.99
55066;BME280;40964;42.114;24.220;2022-09-09T03:43:26;98087.38;;;16.23;83.61
55066;BME280;40964;42.114;24.220;2022-09-09T03:45:52;98087.13;;;16.24;83.08
55066;BME280;40964;42.114;24.220;2022-09-09T03:48:18;98085.47;;;16.18;82.96
55066;BME280;40964;42.114;24.220;2022-09-09T03:50:48;98092.16;;;16.21;82.57
55066;BME280;40964;42.114;24.220;2022-09-09T03:53:15;98097.44;;;16.21;82.36
55066;BME280;40964;42.114;24.220;2022-09-09T03:55:49;98081.16;;;16.12;82.38
55066;BME280;40964;42.114;24.220;2022-09-09T03:58:15;98096.56;;;16.15;82.67
55066;BME280;40964;42.114;24.220;2022-09-09T04:00:41;98086.47;;;16.12;82.90
55066;BME280;40964;42.114;24.220;2022-09-09T04:03:11;98096.97;;;16.07;83.20
55066;BME280;40964;42.114;24.220;2022-09-09T04:05:39;98099.59;;;16.02;83.44
55066;BME280;40964;42.114;24.220;2022-09-09T04:08:07;98078.69;;;15.88;84.00
55066;BME280;40964;42.114;24.220;2022-09-09T04:10:34;98090.75;;;15.96;84.21
55066;BME280;40964;42.114;24.220;2022-09-09T04:13:02;98091.38;;;16.03;84.10
55066;BME280;40964;42.114;24.220;2022-09-09T04:15:27;98082.63;;;16.03;84.27
55066;BME280;40964;42.114;24.220;2022-09-09T04:17:53;98084.94;;;15.99;84.31
55066;BME280;40964;42.114;24.220;2022-09-09T04:20:19;98085.19;;;15.98;84.33
55066;BME280;40964;42.114;24.220;2022-09-09T04:22:44;98090.81;;;16.01;84.44
55066;BME280;40964;42.114;24.220;2022-09-09T04:25:10;98093.88;;;16.10;84.33
55066;BME280;40964;42.114;24.220;2022-09-09T04:27:35;98082.50;;;16.14;83.94
55066;BME280;40964;42.114;24.220;2022-09-09T04:30:01;98090.69;;;16.30;83.51
55066;BME280;40964;42.114;24.220;2022-09-09T04:32:27;98090.78;;;16.62;82.85
55066;BME280;40964;42.114;24.220;2022-09-09T04:34:53;98082.41;;;16.92;81.63
55066;BME280;40964;42.114;24.220;2022-09-09T04:37:18;98086.41;;;17.21;79.45
55066;BME280;40964;42.114;24.220;2022-09-09T04:39:44;98090.31;;;17.41;78.80
55066;BME280;40964;42.114;24.220;2022-09-09T04:42:10;98094.63;;;17.47;78.34
55066;BME280;40964;42.114;24.220;2022-09-09T04:44:36;98068.22;;;17.35;78.09
55066;BME280;40964;42.114;24.220;2022-09-09T04:47:02;98085.19;;;17.66;78.74
55066;BME280;40964;42.114;24.220;2022-09-09T04:49:27;98098.59;;;17.76;78.39
55066;BME280;40964;42.114;24.220;2022-09-09T04:51:53;98100.78;;;17.84;78.17
55066;BME280;40964;42.114;24.220;2022-09-09T04:54:18;98103.25;;;17.96;77.11
55066;BME280;40964;42.114;24.220;2022-09-09T04:56:44;98090.50;;;17.98;77.17
55066;BME280;40964;42.114;24.220;2022-09-09T04:59:09;98102.59;;;18.16;77.07
55066;BME280;40964;42.114;24.220;2022-09-09T05:01:35;98100.00;;;18.26;76.47
55066;BME280;40964;42.114;24.220;2022-09-09T05:04:02;98106.66;;;18.29;76.33
55066;BME280;40964;42.114;24.220;2022-09-09T05:06:28;98106.47;;;18.46;77.34
55066;BME280;40964;42.114;24.220;2022-09-09T05:08:56;98118.50;;;18.58;75.70
55066;BME280;40964;42.114;24.220;2022-09-09T05:11:27;98111.66;;;18.67;75.56
55066;BME280;40964;42.114;24.220;2022-09-09T05:13:54;98113.31;;;18.79;75.19
55066;BME280;40964;42.114;24.220;2022-09-09T05:16:20;98111.97;;;18.86;74.24
55066;BME280;40964;42.114;24.220;2022-09-09T05:18:46;98118.94;;;18.92;73.83
55066;BME280;40964;42.114;24.220;2022-09-09T05:21:13;98119.19;;;18.96;73.63
55066;BME280;40964;42.114;24.220;2022-09-09T05:23:39;98119.50;;;19.05;73.06
55066;BME280;40964;42.114;24.220;2022-09-09T05:26:06;98119.53;;;19.15;73.02
55066;BME280;40964;42.114;24.220;2022-09-09T05:28:34;98109.41;;;19.22;72.89
55066;BME280;40964;42.114;24.220;2022-09-09T05:31:03;98104.91;;;19.33;72.61
55066;BME280;40964;42.114;24.220;2022-09-09T05:33:30;98095.28;;;19.37;70.96
55066;BME280;40964;42.114;24.220;2022-09-09T05:36:00;98103.28;;;19.47;71.09
55066;BME280;40964;42.114;24.220;2022-09-09T05:38:27;98096.91;;;19.43;70.48
55066;BME280;40964;42.114;24.220;2022-09-09T05:40:53;98095.31;;;19.52;69.02
55066;BME280;40964;42.114;24.220;2022-09-09T05:43:21;98100.41;;;19.64;68.46
55066;BME280;40964;42.114;24.220;2022-09-09T05:45:48;98097.44;;;19.75;66.71
55066;BME280;40964;42.114;24.220;2022-09-09T05:48:14;98094.00;;;19.80;66.96
55066;BME280;40964;42.114;24.220;2022-09-09T05:50:41;98088.91;;;19.73;67.85
55066;BME280;40964;42.114;24.220;2022-09-09T05:53:08;98080.38;;;19.81;66.54
55066;BME280;40964;42.114;24.220;2022-09-09T05:55:34;98081.19;;;19.87;64.10
55066;BME280;40964;42.114;24.220;2022-09-09T05:57:59;98082.72;;;20.03;63.48
55066;BME280;40964;42.114;24.220;2022-09-09T06:00:25;98082.19;;;20.17;60.52
55066;BME280;40964;42.114;24.220;2022-09-09T06:02:54;98085.13;;;20.15;63.36
55066;BME280;40964;42.114;24.220;2022-09-09T06:05:19;98096.38;;;19.97;63.46
55066;BME280;40964;42.114;24.220;2022-09-09T06:07:45;98088.91;;;19.89;64.45
55066;BME280;40964;42.114;24.220;2022-09-09T06:10:11;98081.97;;;19.88;64.38
55066;BME280;40964;42.114;24.220;2022-09-09T06:12:39;98081.97;;;19.88;60.62
55066;BME280;40964;42.114;24.220;2022-09-09T06:15:05;98072.31;;;20.02;62.77
55066;BME280;40964;42.114;24.220;2022-09-09T06:17:31;98077.16;;;20.05;62.31
55066;BME280;40964;42.114;24.220;2022-09-09T06:19:56;98069.38;;;20.13;62.26
55066;BME280;40964;42.114;24.220;2022-09-09T06:22:22;98074.94;;;20.27;60.81
55066;BME280;40964;42.114;24.220;2022-09-09T06:24:47;98075.97;;;20.47;59.75
55066;BME280;40964;42.114;24.220;2022-09-09T06:27:13;98073.47;;;20.65;59.98
55066;BME280;40964;42.114;24.220;2022-09-09T06:29:39;98084.72;;;20.57;62.65
55066;BME280;40964;42.114;24.220;2022-09-09T06:32:04;98086.59;;;20.62;64.48
55066;BME280;40964;42.114;24.220;2022-09-09T06:34:30;98096.22;;;20.63;62.42
55066;BME280;40964;42.114;24.220;2022-09-09T06:36:56;98097.53;;;20.65;63.97
55066;BME280;40964;42.114;24.220;2022-09-09T06:39:23;98096.16;;;20.73;62.36
55066;BME280;40964;42.114;24.220;2022-09-09T06:41:48;98094.50;;;20.82;61.44
55066;BME280;40964;42.114;24.220;2022-09-09T06:44:15;98095.38;;;20.73;61.94
55066;BME280;40964;42.114;24.220;2022-09-09T06:46:41;98097.16;;;20.87;62.87
55066;BME280;40964;42.114;24.220;2022-09-09T06:49:08;98098.16;;;21.02;58.97
55066;BME280;40964;42.114;24.220;2022-09-09T06:51:36;98080.44;;;21.11;59.16
55066;BME280;40964;42.114;24.220;2022-09-09T06:54:03;98079.91;;;21.14;58.28
55066;BME280;40964;42.114;24.220;2022-09-09T06:56:34;98076.31;;;21.34;58.13
55066;BME280;40964;42.114;24.220;2022-09-09T06:59:02;98078.13;;;21.38;58.15
55066;BME280;40964;42.114;24.220;2022-09-09T07:01:33;98077.50;;;21.51;57.67
55066;BME280;40964;42.114;24.220;2022-09-09T07:04:00;98070.69;;;21.64;56.85
55066;BME280;40964;42.114;24.220;2022-09-09T07:06:32;98088.69;;;21.59;58.83
55066;BME280;40964;42.114;24.220;2022-09-09T07:09:17;98091.50;;;21.38;58.74
55066;BME280;40964;42.114;24.220;2022-09-09T07:11:47;98087.00;;;21.39;59.49
55066;BME280;40964;42.114;24.220;2022-09-09T07:14:14;98082.28;;;21.54;58.93
55066;BME280;40964;42.114;24.220;2022-09-09T07:16:44;98085.56;;;21.46;57.83
55066;BME280;40964;42.114;24.220;2022-09-09T07:19:12;98094.00;;;21.64;58.10
55066;BME280;40964;42.114;24.220;2022-09-09T07:21:38;98105.94;;;21.76;56.55
55066;BME280;40964;42.114;24.220;2022-09-09T07:24:04;98090.91;;;22.09;58.01
55066;BME280;40964;42.114;24.220;2022-09-09T07:26:33;98089.50;;;22.17;56.27
55066;BME280;40964;42.114;24.220;2022-09-09T07:28:59;98085.19;;;22.21;57.06
55066;BME280;40964;42.114;24.220;2022-09-09T07:31:29;98082.41;;;22.31;56.23
55066;BME280;40964;42.114;24.220;2022-09-09T07:33:58;98077.44;;;22.62;59.67
55066;BME280;40964;42.114;24.220;2022-09-09T07:36:36;98070.41;;;22.90;57.83
55066;BME280;40964;42.114;24.220;2022-09-09T07:39:08;98071.00;;;22.87;54.83
55066;BME280;40964;42.114;24.220;2022-09-09T07:41:39;98074.78;;;23.05;58.05
55066;BME280;40964;42.114;24.220;2022-09-09T07:44:17;98079.06;;;22.82;57.11
55066;BME280;40964;42.114;24.220;2022-09-09T07:46:43;98072.19;;;22.57;56.53
55066;BME280;40964;42.114;24.220;2022-09-09T07:49:10;98080.22;;;22.57;55.81
55066;BME280;40964;42.114;24.220;2022-09-09T07:51:39;98064.56;;;22.64;55.21
55066;BME280;40964;42.114;24.220;2022-09-09T07:54:10;98076.03;;;22.70;53.96
55066;BME280;40964;42.114;24.220;2022-09-09T07:56:37;98068.97;;;22.98;56.91
55066;BME280;40964;42.114;24.220;2022-09-09T07:59:04;98069.09;;;23.26;55.84
55066;BME280;40964;42.114;24.220;2022-09-09T08:01:37;98070.75;;;23.40;54.09
55066;BME280;40964;42.114;24.220;2022-09-09T08:04:10;98067.88;;;23.37;52.93
55066;BME280;40964;42.114;24.220;2022-09-09T08:06:41;98057.31;;;23.59;54.47
55066;BME280;40964;42.114;24.220;2022-09-09T08:09:08;98064.63;;;23.54;54.90
55066;BME280;40964;42.114;24.220;2022-09-09T08:11:35;98059.13;;;23.45;54.00
55066;BME280;40964;42.114;24.220;2022-09-09T08:14:02;98060.31;;;23.39;55.90
55066;BME280;40964;42.114;24.220;2022-09-09T08:16:33;98062.50;;;23.37;52.25
55066;BME280;40964;42.114;24.220;2022-09-09T08:18:59;98063.13;;;23.47;52.88
55066;BME280;40964;42.114;24.220;2022-09-09T08:21:28;98055.34;;;23.65;54.67
55066;BME280;40964;42.114;24.220;2022-09-09T08:23:56;98052.53;;;23.56;53.09
55066;BME280;40964;42.114;24.220;2022-09-09T08:26:24;98062.03;;;23.48;54.12
55066;BME280;40964;42.114;24.220;2022-09-09T08:28:51;98066.59;;;23.67;51.30
55066;BME280;40964;42.114;24.220;2022-09-09T08:31:20;98067.53;;;23.90;51.36
55066;BME280;40964;42.114;24.220;2022-09-09T08:33:46;98067.16;;;24.10;50.42
55066;BME280;40964;42.114;24.220;2022-09-09T08:36:15;98061.72;;;24.43;52.00
55066;BME280;40964;42.114;24.220;2022-09-09T08:38:48;98051.84;;;24.52;50.96
55066;BME280;40964;42.114;24.220;2022-09-09T08:47:31;98048.88;;;24.40;50.63
55066;BME280;40964;42.114;24.220;2022-09-09T08:52:25;98049.41;;;24.78;50.13
55066;BME280;40964;42.114;24.220;2022-09-09T08:54:56;98055.44;;;24.47;51.96
55066;BME280;40964;42.114;24.220;2022-09-09T08:57:27;98049.56;;;24.45;50.21
55066;BME280;40964;42.114;24.220;2022-09-09T08:59:55;98039.28;;;24.61;49.39
55066;BME280;40964;42.114;24.220;2022-09-09T09:02:27;98042.75;;;24.75;48.90
55066;BME280;40964;42.114;24.220;2022-09-09T09:05:04;98049.78;;;24.85;49.51
55066;BME280;40964;42.114;24.220;2022-09-09T09:10:54;98031.81;;;25.53;50.20
55066;BME280;40964;42.114;24.220;2022-09-09T09:16:47;98032.34;;;26.25;47.80
55066;BME280;40964;42.114;24.220;2022-09-09T09:19:16;98024.69;;;26.19;49.12
55066;BME280;40964;42.114;24.220;2022-09-09T09:21:51;98022.94;;;26.23;47.85
55066;BME280;40964;42.114;24.220;2022-09-09T09:26:50;98017.59;;;25.61;48.77
55066;BME280;40964;42.114;24.220;2022-09-09T09:29:19;98009.78;;;25.73;46.49
55066;BME280;40964;42.114;24.220;2022-09-09T09:31:55;98018.25;;;25.89;48.46
55066;BME280;40964;42.114;24.220;2022-09-09T09:34:22;97996.97;;;26.27;47.08
55066;BME280;40964;42.114;24.220;2022-09-09T09:36:56;97995.63;;;26.73;48.14
55066;BME280;40964;42.114;24.220;2022-09-09T09:41:49;97992.63;;;26.92;44.28
55066;BME280;40964;42.114;24.220;2022-09-09T09:44:28;97997.88;;;26.79;46.63
55066;BME280;40964;42.114;24.220;2022-09-09T09:47:15;97998.34;;;26.90;45.54
55066;BME280;40964;42.114;24.220;2022-09-09T09:49:55;98002.75;;;26.69;47.31
55066;BME280;40964;42.114;24.220;2022-09-09T09:52:25;97998.97;;;26.78;45.11
55066;BME280;40964;42.114;24.220;2022-09-09T09:54:52;97999.28;;;26.77;46.14
55066;BME280;40964;42.114;24.220;2022-09-09T09:57:24;97988.66;;;27.15;45.07
55066;BME280;40964;42.114;24.220;2022-09-09T10:00:00;97988.47;;;27.29;45.13
55066;BME280;40964;42.114;24.220;2022-09-09T10:02:36;97986.78;;;27.07;44.99
55066;BME280;40964;42.114;24.220;2022-09-09T10:05:12;97992.94;;;26.73;47.26
55066;BME280;40964;42.114;24.220;2022-09-09T10:07:38;97985.78;;;26.77;48.01
55066;BME280;40964;42.114;24.220;2022-09-09T10:10:04;97984.50;;;26.92;45.51
55066;BME280;40964;42.114;24.220;2022-09-09T10:18:25;97989.13;;;27.26;45.91
55066;BME280;40964;42.114;24.220;2022-09-09T10:21:10;97992.59;;;27.35;45.42
55066;BME280;40964;42.114;24.220;2022-09-09T10:24:19;97983.69;;;27.43;43.31
55066;BME280;40964;42.114;24.220;2022-09-09T10:26:55;97980.28;;;27.72;43.46
55066;BME280;40964;42.114;24.220;2022-09-09T10:35:24;97975.19;;;28.38;42.04
55066;BME280;40964;42.114;24.220;2022-09-09T10:54:46;97960.28;;;28.32;44.00
55066;BME280;40964;42.114;24.220;2022-09-09T10:57:31;97964.03;;;28.10;43.91
55066;BME280;40964;42.114;24.220;2022-09-09T11:00:04;97964.00;;;27.89;44.53
55066;BME280;40964;42.114;24.220;2022-09-09T11:02:33;97961.78;;;28.12;46.41
55066;BME280;40964;42.114;24.220;2022-09-09T11:05:14;97960.09;;;28.08;42.97
55066;BME280;40964;42.114;24.220;2022-09-09T11:10:27;97963.31;;;27.54;44.95
55066;BME280;40964;42.114;24.220;2022-09-09T11:13:01;97955.72;;;27.39;46.23
55066;BME280;40964;42.114;24.220;2022-09-09T11:15:42;97953.72;;;26.93;45.68
55066;BME280;40964;42.114;24.220;2022-09-09T11:18:14;97947.38;;;27.14;45.15
55066;BME280;40964;42.114;24.220;2022-09-09T11:20:44;97951.09;;;27.39;43.97
55066;BME280;40964;42.114;24.220;2022-09-09T11:23:21;97954.81;;;27.82;45.04
55066;BME280;40964;42.114;24.220;2022-09-09T11:25:55;97951.63;;;27.80;43.83
55066;BME280;40964;42.114;24.220;2022-09-09T11:31:07;97941.34;;;27.64;44.86
55066;BME280;40964;42.114;24.220;2022-09-09T11:34:25;97934.16;;;28.07;43.95
55066;BME280;40964;42.114;24.220;2022-09-09T11:37:12;97935.03;;;28.49;42.54
55066;BME280;40964;42.114;24.220;2022-09-09T11:42:23;97933.28;;;28.65;44.28
55066;BME280;40964;42.114;24.220;2022-09-09T11:44:49;97927.34;;;28.93;44.03
55066;BME280;40964;42.114;24.220;2022-09-09T11:47:25;97925.50;;;28.64;42.85
55066;BME280;40964;42.114;24.220;2022-09-09T11:49:55;97928.88;;;28.40;43.64
55066;BME280;40964;42.114;24.220;2022-09-09T11:52:35;97908.13;;;28.23;42.77
55066;BME280;40964;42.114;24.220;2022-09-09T11:57:44;97921.41;;;28.58;44.33
55066;BME280;40964;42.114;24.220;2022-09-09T12:02:54;97912.06;;;29.09;41.54
55066;BME280;40964;42.114;24.220;2022-09-09T12:05:20;97908.81;;;29.28;42.51
55066;BME280;40964;42.114;24.220;2022-09-09T12:07:56;97914.13;;;29.24;40.79
55066;BME280;40964;42.114;24.220;2022-09-09T12:12:49;97907.75;;;28.96;42.40
55066;BME280;40964;42.114;24.220;2022-09-09T12:15:25;97905.38;;;28.52;42.30
55066;BME280;40964;42.114;24.220;2022-09-09T12:17:55;97904.84;;;28.59;44.12
55066;BME280;40964;42.114;24.220;2022-09-09T12:20:34;97902.09;;;28.68;42.42
55066;BME280;40964;42.114;24.220;2022-09-09T12:23:15;97916.34;;;28.77;42.71
55066;BME280;40964;42.114;24.220;2022-09-09T12:28:41;97909.97;;;29.39;41.81
55066;BME280;40964;42.114;24.220;2022-09-09T12:36:37;97896.53;;;28.22;44.59
55066;BME280;40964;42.114;24.220;2022-09-09T12:39:27;97889.16;;;28.52;44.66
55066;BME280;40964;42.114;24.220;2022-09-09T12:41:55;97888.75;;;28.42;44.70
55066;BME280;40964;42.114;24.220;2022-09-09T12:44:23;97857.53;;;28.23;44.74
55066;BME280;40964;42.114;24.220;2022-09-09T12:46:50;97878.13;;;28.37;41.81
55066;BME280;40964;42.114;24.220;2022-09-09T12:49:37;97887.94;;;28.20;43.38
55066;BME280;40964;42.114;24.220;2022-09-09T12:52:22;97877.56;;;28.31;43.88
55066;BME280;40964;42.114;24.220;2022-09-09T12:54:51;97882.09;;;28.39;44.03
55066;BME280;40964;42.114;24.220;2022-09-09T12:57:17;97882.06;;;28.18;45.04
55066;BME280;40964;42.114;24.220;2022-09-09T12:59:43;97871.81;;;28.03;43.24
55066;BME280;40964;42.114;24.220;2022-09-09T13:02:22;97863.53;;;28.08;45.04
55066;BME280;40964;42.114;24.220;2022-09-09T13:04:48;97863.75;;;27.94;44.40
55066;BME280;40964;42.114;24.220;2022-09-09T13:07:16;97851.69;;;28.13;43.74
55066;BME280;40964;42.114;24.220;2022-09-09T13:09:43;97840.03;;;28.00;45.06
55066;BME280;40964;42.114;24.220;2022-09-09T13:12:21;97842.28;;;27.98;44.89
55066;BME280;40964;42.114;24.220;2022-09-09T13:14:55;97835.88;;;28.03;43.89
55066;BME280;40964;42.114;24.220;2022-09-09T13:17:26;97826.78;;;28.07;44.53
55066;BME280;40964;42.114;24.220;2022-09-09T13:19:54;97833.06;;;27.99;44.24
55066;BME280;40964;42.114;24.220;2022-09-09T13:22:41;97830.75;;;28.10;45.81
55066;BME280;40964;42.114;24.220;2022-09-09T13:27:40;97825.94;;;28.15;43.15
55066;BME280;40964;42.114;24.220;2022-09-09T13:30:27;97828.19;;;28.13;43.20
55066;BME280;40964;42.114;24.220;2022-09-09T13:35:46;97825.91;;;27.94;44.09
55066;BME280;40964;42.114;24.220;2022-09-09T13:38:14;97823.22;;;27.94;44.84
55066;BME280;40964;42.114;24.220;2022-09-09T13:40:40;97824.41;;;27.85;44.94
55066;BME280;40964;42.114;24.220;2022-09-09T13:43:14;97814.75;;;27.75;45.61
55066;BME280;40964;42.114;24.220;2022-09-09T13:45:53;97813.97;;;27.75;44.76
55066;BME280;40964;42.114;24.220;2022-09-09T13:48:19;97810.03;;;27.63;44.44
55066;BME280;40964;42.114;24.220;2022-09-09T13:50:57;97807.34;;;27.63;43.86
55066;BME280;40964;42.114;24.220;2022-09-09T13:53:23;97797.69;;;27.54;44.94
55066;BME280;40964;42.114;24.220;2022-09-09T13:55:49;97811.97;;;27.63;46.44
55066;BME280;40964;42.114;24.220;2022-09-09T13:58:17;97806.06;;;27.69;49.97
55066;BME280;40964;42.114;24.220;2022-09-09T14:00:44;97801.00;;;27.68;47.76
55066;BME280;40964;42.114;24.220;2022-09-09T14:03:10;97806.41;;;27.68;47.22
55066;BME280;40964;42.114;24.220;2022-09-09T14:05:35;97804.78;;;27.67;45.84
55066;BME280;40964;42.114;24.220;2022-09-09T14:08:03;97804.97;;;27.62;46.87
55066;BME280;40964;42.114;24.220;2022-09-09T14:10:30;97805.16;;;27.57;48.23
55066;BME280;40964;42.114;24.220;2022-09-09T14:12:56;97799.63;;;27.53;48.54
55066;BME280;40964;42.114;24.220;2022-09-09T14:15:22;97797.56;;;27.50;49.03
55066;BME280;40964;42.114;24.220;2022-09-09T14:17:47;97794.34;;;27.57;48.16
55066;BME280;40964;42.114;24.220;2022-09-09T14:20:14;97799.75;;;27.57;47.85
55066;BME280;40964;42.114;24.220;2022-09-09T14:22:41;97801.31;;;27.58;49.58
55066;BME280;40964;42.114;24.220;2022-09-09T14:25:07;97790.66;;;27.61;50.07
55066;BME280;40964;42.114;24.220;2022-09-09T14:27:32;97806.44;;;27.59;49.36
55066;BME280;40964;42.114;24.220;2022-09-09T14:29:58;97799.09;;;27.60;49.81
55066;BME280;40964;42.114;24.220;2022-09-09T14:32:25;97791.97;;;27.55;47.69
55066;BME280;40964;42.114;24.220;2022-09-09T14:34:51;97788.03;;;27.53;47.48
55066;BME280;40964;42.114;24.220;2022-09-09T14:37:17;97789.47;;;27.50;47.54
55066;BME280;40964;42.114;24.220;2022-09-09T14:39:43;97785.94;;;27.50;49.12
55066;BME280;40964;42.114;24.220;2022-09-09T14:42:13;97788.53;;;27.46;49.14
55066;BME280;40964;42.114;24.220;2022-09-09T14:44:38;97783.91;;;27.47;49.91
55066;BME280;40964;42.114;24.220;2022-09-09T14:47:08;97788.06;;;27.44;49.79
55066;BME280;40964;42.114;24.220;2022-09-09T14:49:34;97790.16;;;27.38;49.42
55066;BME280;40964;42.114;24.220;2022-09-09T14:52:00;97774.00;;;27.30;50.05
55066;BME280;40964;42.114;24.220;2022-09-09T14:54:26;97779.06;;;27.31;51.92
55066;BME280;40964;42.114;24.220;2022-09-09T14:56:51;97777.28;;;27.14;52.52
55066;BME280;40964;42.114;24.220;2022-09-09T14:59:17;97776.97;;;27.07;53.60
55066;BME280;40964;42.114;24.220;2022-09-09T15:01:42;97770.47;;;27.08;52.49
55066;BME280;40964;42.114;24.220;2022-09-09T15:04:11;97766.31;;;27.11;52.90
55066;BME280;40964;42.114;24.220;2022-09-09T15:06:38;97768.41;;;27.05;53.30
55066;BME280;40964;42.114;24.220;2022-09-09T15:09:05;97758.88;;;26.99;52.54
55066;BME280;40964;42.114;24.220;2022-09-09T15:11:34;97761.16;;;26.88;52.59
55066;BME280;40964;42.114;24.220;2022-09-09T15:14:03;97752.44;;;26.74;52.82